createdAt,value
2023-02-05T00:02:00.315Z,27.80
2023-02-05T00:04:17.390Z,24.45
2023-02-05T00:06:34.397Z,22.38
2023-02-05T00:08:51.332Z,25.23
2023-02-05T00:11:08.378Z,24.08
2023-02-05T00:13:27.669Z,25.27
2023-02-05T00:15:44.923Z,23.95
2023-02-05T00:18:02.123Z,24.40
2023-02-05T00:20:19.390Z,26.20
2023-02-05T00:22:36.470Z,24.60
2023-02-05T00:24:53.748Z,24.13
2023-02-05T00:27:10.787Z,21.67
2023-02-05T00:29:28.252Z,27.60
2023-02-05T00:31:45.312Z,22.55
2023-02-05T00:34:02.460Z,23.40
2023-02-05T00:36:19.469Z,23.50
2023-02-05T00:38:36.909Z,21.42
2023-02-05T00:40:54.071Z,22.23
2023-02-05T00:43:11.160Z,22.58
2023-02-05T00:45:29.193Z,25.65
2023-02-05T00:47:48.347Z,26.20
2023-02-05T00:50:05.571Z,24.77
2023-02-05T00:52:23.913Z,27.58
2023-02-05T00:54:41.231Z,24.25
2023-02-05T00:56:58.206Z,23.75
2023-02-05T00:59:15.130Z,22.45
2023-02-05T01:01:33.529Z,24.50
2023-02-05T01:03:55.034Z,24.75
2023-02-05T01:06:12.316Z,19.65
2023-02-05T01:08:29.696Z,24.65
2023-02-05T01:10:46.699Z,20.02
2023-02-05T01:13:03.742Z,25.02
2023-02-05T01:15:23.186Z,24.42
2023-02-05T01:17:40.356Z,23.88
2023-02-05T01:19:57.335Z,24.75
2023-02-05T01:22:14.388Z,23.85
2023-02-05T01:24:32.761Z,19.42
2023-02-05T01:26:51.323Z,22.35
2023-02-05T01:29:08.597Z,21.90
2023-02-05T01:31:26.034Z,23.45
2023-02-05T01:33:43.450Z,21.42
2023-02-05T01:36:01.571Z,24.27
2023-02-05T01:38:18.702Z,21.08
2023-02-05T01:40:35.798Z,24.08
2023-02-05T01:43:02.229Z,22.25
2023-02-05T01:45:19.177Z,26.25
2023-02-05T01:47:36.206Z,26.58
2023-02-05T01:49:59.318Z,26.77
2023-02-05T01:52:16.234Z,24.07
2023-02-05T01:54:33.620Z,22.58
2023-02-05T01:56:51.005Z,24.80
2023-02-05T01:59:10.546Z,25.05
2023-02-05T02:01:27.941Z,26.13
2023-02-05T02:03:45.134Z,27.02
2023-02-05T02:06:03.202Z,23.80
2023-02-05T02:08:20.485Z,26.05
2023-02-05T02:10:37.525Z,24.98
2023-02-05T02:12:57.921Z,25.25
2023-02-05T02:15:16.180Z,24.80
2023-02-05T02:17:34.204Z,28.17
2023-02-05T02:19:54.156Z,27.13
2023-02-05T02:22:11.465Z,25.27
2023-02-05T02:24:31.057Z,24.00
2023-02-05T02:26:48.421Z,24.95
2023-02-05T02:29:06.091Z,23.48
2023-02-05T02:31:24.480Z,25.65
2023-02-05T02:33:41.690Z,23.55
2023-02-05T02:35:58.632Z,21.98
2023-02-05T02:38:15.787Z,25.25
2023-02-05T02:40:32.734Z,24.10
2023-02-05T02:42:51.956Z,23.27
2023-02-05T02:45:10.597Z,24.75
2023-02-05T02:47:27.639Z,22.92
2023-02-05T02:49:44.624Z,29.88
2023-02-05T02:52:01.741Z,26.65
2023-02-05T02:54:18.740Z,26.08
2023-02-05T02:56:35.855Z,23.98
2023-02-05T02:58:54.324Z,26.35
2023-02-05T03:01:11.714Z,21.30
2023-02-05T03:03:34.427Z,24.33
2023-02-05T03:05:51.487Z,25.33
2023-02-05T03:08:11.505Z,31.15
2023-02-05T03:10:37.892Z,25.98
2023-02-05T03:12:58.951Z,27.08
2023-02-05T03:15:16.106Z,28.13
2023-02-05T03:17:33.556Z,24.30
2023-02-05T03:19:53.362Z,27.33
2023-02-05T03:22:10.848Z,25.38
2023-02-05T03:24:27.981Z,25.80
2023-02-05T03:26:44.923Z,27.05
2023-02-05T03:29:01.928Z,29.15
2023-02-05T03:31:18.946Z,32.65
2023-02-05T03:33:36.226Z,27.60
2023-02-05T03:35:53.231Z,26.70
2023-02-05T03:38:10.147Z,30.05
2023-02-05T03:40:27.181Z,26.35
2023-02-05T03:42:44.215Z,25.40
2023-02-05T03:45:02.499Z,27.10
2023-02-05T03:47:19.810Z,28.70
2023-02-05T03:49:37.057Z,29.05
2023-02-05T03:51:54.323Z,23.63
2023-02-05T03:54:11.716Z,28.92
2023-02-05T03:56:28.759Z,25.80
2023-02-05T03:58:45.657Z,29.05
2023-02-05T04:01:02.760Z,22.20
2023-02-05T04:03:20.101Z,27.67
2023-02-05T04:05:38.025Z,28.35
2023-02-05T04:07:56.322Z,26.13
2023-02-05T04:10:13.393Z,28.67
2023-02-05T04:12:30.414Z,32.70
2023-02-05T04:14:47.462Z,27.45
2023-02-05T04:17:04.610Z,32.20
2023-02-05T04:19:21.610Z,23.38
2023-02-05T04:21:38.644Z,26.77
2023-02-05T04:23:55.672Z,29.02
2023-02-05T04:26:12.999Z,29.08
2023-02-05T04:28:31.280Z,35.05
2023-02-05T04:30:48.578Z,27.10
2023-02-05T04:33:06.812Z,31.38
2023-02-05T04:35:24.015Z,22.13
2023-02-05T04:37:41.030Z,27.70
2023-02-05T04:39:58.066Z,31.52
2023-02-05T04:42:15.156Z,26.95
2023-02-05T04:44:32.067Z,28.63
2023-02-05T04:46:49.292Z,27.88
2023-02-05T04:49:06.295Z,25.90
2023-02-05T04:51:24.316Z,27.80
2023-02-05T04:53:42.555Z,30.90
2023-02-05T04:55:59.549Z,27.58
2023-02-05T04:58:17.642Z,27.95
2023-02-05T05:00:34.559Z,24.17
2023-02-05T05:02:51.838Z,25.40
2023-02-05T05:05:08.829Z,30.98
2023-02-05T05:07:25.864Z,27.35
2023-02-05T05:09:42.806Z,30.95
2023-02-05T05:11:59.876Z,25.45
2023-02-05T05:14:17.107Z,26.83
2023-02-05T05:16:34.227Z,29.42
2023-02-05T05:18:51.444Z,32.25
2023-02-05T05:21:08.796Z,30.48
2023-02-05T05:23:25.867Z,28.25
2023-02-05T05:25:44.180Z,29.45
2023-02-05T05:28:01.274Z,24.92
2023-02-05T05:30:18.575Z,29.10
2023-02-05T05:32:35.898Z,27.23
2023-02-05T05:34:53.298Z,29.90
2023-02-05T05:37:10.560Z,28.65
2023-02-05T05:39:27.939Z,23.20
2023-02-05T05:41:44.930Z,33.63
2023-02-05T05:44:02.094Z,28.30
2023-02-05T05:46:19.078Z,28.92
2023-02-05T05:48:36.056Z,26.65
2023-02-05T05:50:53.247Z,31.52
2023-02-05T05:53:10.440Z,29.08
2023-02-05T05:55:28.143Z,26.55
2023-02-05T05:57:45.227Z,23.50
2023-02-05T06:00:02.323Z,25.48
2023-02-05T06:02:20.864Z,24.50
2023-02-05T06:04:38.223Z,25.52
2023-02-05T06:06:55.926Z,30.80
2023-02-05T06:09:13.042Z,26.88
2023-02-05T06:11:31.488Z,30.25
2023-02-05T06:13:49.523Z,28.88
2023-02-05T06:16:06.945Z,26.50
2023-02-05T06:18:24.057Z,24.20
2023-02-05T06:20:41.312Z,28.65
2023-02-05T06:22:59.676Z,21.02
2023-02-05T06:25:18.096Z,22.80
2023-02-05T06:27:35.020Z,23.52
2023-02-05T06:29:52.195Z,23.50
2023-02-05T06:32:09.250Z,29.25
2023-02-05T06:34:26.563Z,28.25
2023-02-05T06:36:43.676Z,27.92
2023-02-05T06:39:01.056Z,27.35
2023-02-05T06:41:18.425Z,25.40
2023-02-05T06:43:35.484Z,24.63
2023-02-05T06:45:52.510Z,26.05
2023-02-05T06:48:09.759Z,21.33
2023-02-05T06:50:27.218Z,22.15
2023-02-05T06:52:45.269Z,26.35
2023-02-05T06:55:02.588Z,26.27
2023-02-05T06:57:19.904Z,23.98
2023-02-05T06:59:36.873Z,24.75
2023-02-05T07:01:54.325Z,29.38
2023-02-05T07:04:12.350Z,29.55
2023-02-05T07:06:29.755Z,24.65
2023-02-05T07:08:47.116Z,27.88
2023-02-05T07:11:05.206Z,22.10
2023-02-05T07:13:23.517Z,23.38
2023-02-05T07:15:41.468Z,21.83
2023-02-05T07:17:58.770Z,25.65
2023-02-05T07:20:16.811Z,23.90
2023-02-05T07:22:34.193Z,23.48
2023-02-05T07:24:52.524Z,24.40
2023-02-05T07:27:09.431Z,27.58
2023-02-05T07:29:26.710Z,26.38
2023-02-05T07:31:44.055Z,31.15
2023-02-05T07:34:01.185Z,27.10
2023-02-05T07:36:19.119Z,24.00
2023-02-05T07:38:38.564Z,27.15
2023-02-05T07:40:56.560Z,21.30
2023-02-05T07:43:14.275Z,24.17
2023-02-05T07:45:31.729Z,23.90
2023-02-05T07:47:49.771Z,27.30
2023-02-05T07:50:07.140Z,26.05
2023-02-05T07:52:24.433Z,26.13
2023-02-05T07:54:41.706Z,26.38
2023-02-05T07:56:58.708Z,23.83
2023-02-05T07:59:15.968Z,26.13
2023-02-05T08:01:33.080Z,23.30
2023-02-05T08:03:51.047Z,26.33
2023-02-05T08:06:08.382Z,25.02
2023-02-05T08:08:25.711Z,27.42
2023-02-05T08:10:43.002Z,22.92
2023-02-05T08:13:01.385Z,25.13
2023-02-05T08:15:18.433Z,26.77
2023-02-05T08:17:35.778Z,27.92
2023-02-05T08:19:55.586Z,23.65
2023-02-05T08:22:13.486Z,23.70
2023-02-05T08:24:30.782Z,23.92
2023-02-05T08:26:50.144Z,31.15
2023-02-05T08:29:07.156Z,25.20
2023-02-05T08:31:24.240Z,28.70
2023-02-05T08:33:41.345Z,30.40
2023-02-05T08:35:58.339Z,26.88
2023-02-05T08:38:15.726Z,27.90
2023-02-05T08:40:33.562Z,25.17
2023-02-05T08:42:50.861Z,25.48
2023-02-05T08:45:08.245Z,23.98
2023-02-05T08:47:25.354Z,29.67
2023-02-05T08:49:43.234Z,32.67
2023-02-05T08:52:00.264Z,41.90
2023-02-05T08:54:17.333Z,46.83
2023-02-05T08:56:34.621Z,52.22
2023-02-05T08:58:53.012Z,40.60
2023-02-05T09:01:10.353Z,34.42
2023-02-05T09:03:27.314Z,26.02
2023-02-05T09:05:44.429Z,27.40
2023-02-05T09:08:01.553Z,25.85
2023-02-05T09:10:18.610Z,26.67
2023-02-05T09:12:35.982Z,19.58
2023-02-05T09:14:53.216Z,20.38
2023-02-05T09:17:10.287Z,19.52
2023-02-05T09:19:27.417Z,22.55
2023-02-05T09:21:44.823Z,24.13
2023-02-05T09:24:02.190Z,26.08
2023-02-05T09:26:19.498Z,23.10
2023-02-05T09:28:36.406Z,23.48
2023-02-05T09:30:53.573Z,20.73
2023-02-05T09:33:10.790Z,19.70
2023-02-05T09:35:27.890Z,24.35
2023-02-05T09:37:44.960Z,21.05
2023-02-05T09:40:20.137Z,21.77
2023-02-05T09:42:38.791Z,22.50
2023-02-05T09:44:55.926Z,22.98
2023-02-05T09:47:13.035Z,25.13
2023-02-05T09:49:31.067Z,26.40
2023-02-05T09:51:48.173Z,26.25
2023-02-05T09:54:06.212Z,22.90
2023-02-05T09:56:23.216Z,24.63
2023-02-05T09:58:40.318Z,22.83
2023-02-05T10:00:57.497Z,21.90
2023-02-05T10:03:14.700Z,21.20
2023-02-05T10:05:32.389Z,24.10
2023-02-05T10:07:49.686Z,22.95
2023-02-05T10:10:08.297Z,25.98
2023-02-05T10:12:26.386Z,25.40
2023-02-05T10:14:43.656Z,24.05
2023-02-05T10:17:01.809Z,24.83
2023-02-05T10:19:18.800Z,23.55
2023-02-05T10:21:36.113Z,23.63
2023-02-05T10:23:53.127Z,25.05
2023-02-05T10:26:10.424Z,24.20
2023-02-05T10:28:28.069Z,24.65
2023-02-05T10:30:45.148Z,24.80
2023-02-05T10:33:02.615Z,25.55
2023-02-05T10:35:19.744Z,28.15
2023-02-05T10:37:37.116Z,26.70
2023-02-05T10:39:55.193Z,28.17
2023-02-05T10:42:13.234Z,29.17
2023-02-05T10:44:32.129Z,25.77
2023-02-05T10:46:49.479Z,30.10
2023-02-05T10:49:06.820Z,29.63
2023-02-05T10:51:24.129Z,28.52
2023-02-05T10:53:41.160Z,29.05
2023-02-05T10:55:59.484Z,31.30
2023-02-05T10:58:16.758Z,27.75
2023-02-05T11:00:33.991Z,26.88
2023-02-05T11:02:51.603Z,29.73
2023-02-05T11:05:08.531Z,22.27
2023-02-05T11:07:26.530Z,25.30
2023-02-05T11:09:43.701Z,22.25
2023-02-05T11:12:00.709Z,23.63
2023-02-05T11:14:17.805Z,15.88
2023-02-05T11:16:34.887Z,24.48
2023-02-05T11:18:52.984Z,22.42
2023-02-05T11:21:12.029Z,12.38
2023-02-05T11:23:30.301Z,8.15
2023-02-05T11:25:47.500Z,8.32
2023-02-05T11:28:05.391Z,7.55
2023-02-05T11:30:47.675Z,4.90
2023-02-05T11:32:59.608Z,5.88
2023-02-05T11:35:16.669Z,3.47
2023-02-05T11:37:34.642Z,4.05
2023-02-05T11:39:51.564Z,3.50
2023-02-05T11:42:10.900Z,2.58
2023-02-05T11:44:30.105Z,3.03
2023-02-05T11:46:49.654Z,4.10
2023-02-05T11:49:08.236Z,2.38
2023-02-05T11:51:26.758Z,2.47
2023-02-05T11:53:45.818Z,2.95
2023-02-05T11:56:03.284Z,3.75
2023-02-05T11:58:28.345Z,3.88
2023-02-05T12:00:49.818Z,2.90
2023-02-05T12:03:06.970Z,2.95
2023-02-05T12:05:24.252Z,2.15
2023-02-05T12:07:41.547Z,2.35
2023-02-05T12:09:58.643Z,3.97
2023-02-05T12:12:17.011Z,2.97
2023-02-05T12:14:34.103Z,2.88
2023-02-05T12:16:52.489Z,2.40
2023-02-05T12:19:10.470Z,1.63
2023-02-05T12:21:28.876Z,2.28
2023-02-05T12:23:45.983Z,2.72
2023-02-05T12:26:02.949Z,2.05
2023-02-05T12:28:20.177Z,2.97
2023-02-05T12:30:38.291Z,3.33
2023-02-05T12:32:55.255Z,2.58
2023-02-05T12:35:12.609Z,1.50
2023-02-05T12:37:29.823Z,1.77
2023-02-05T12:39:47.271Z,1.65
2023-02-05T12:42:04.326Z,1.98
2023-02-05T12:44:22.339Z,1.20
2023-02-05T12:46:39.777Z,1.27
2023-02-05T12:48:58.275Z,1.83
2023-02-05T12:51:16.396Z,1.27
2023-02-05T12:53:33.755Z,1.67
2023-02-05T12:55:50.790Z,0.80
2023-02-05T12:58:09.561Z,1.42
2023-02-05T13:00:27.701Z,1.23
2023-02-05T13:02:44.798Z,1.23
2023-02-05T13:05:02.782Z,1.00
2023-02-05T13:07:19.918Z,4.05
2023-02-05T13:09:38.209Z,6.97
2023-02-05T13:11:55.232Z,5.82
2023-02-05T13:14:13.545Z,4.38
2023-02-05T13:16:30.969Z,1.83
2023-02-05T13:18:49.714Z,1.20
2023-02-05T13:21:06.981Z,1.38
2023-02-05T13:23:24.269Z,1.13
2023-02-05T13:25:41.878Z,2.78
2023-02-05T13:27:59.053Z,1.23
2023-02-05T13:30:16.121Z,3.25
2023-02-05T13:32:33.513Z,18.77
2023-02-05T13:34:50.640Z,24.00
2023-02-05T13:37:10.317Z,70.40
2023-02-05T13:39:34.289Z,43.75
2023-02-05T13:44:08.696Z,87.85
2023-02-05T13:46:25.999Z,56.50
2023-02-05T13:48:43.449Z,14.88
2023-02-05T13:51:03.015Z,3.63
2023-02-05T13:53:21.775Z,4.65
2023-02-05T13:55:40.238Z,3.47
2023-02-05T13:57:57.539Z,1.70
2023-02-05T14:00:16.044Z,1.45
2023-02-05T14:02:33.140Z,1.30
2023-02-05T14:04:50.226Z,2.10
2023-02-05T14:07:07.259Z,1.70
2023-02-05T14:09:24.321Z,1.38
2023-02-05T14:11:41.643Z,2.10
2023-02-05T14:13:58.834Z,1.83
2023-02-05T14:16:16.796Z,1.67
2023-02-05T14:18:34.006Z,14.32
2023-02-05T14:20:52.062Z,15.85
2023-02-05T14:23:09.436Z,4.40
2023-02-05T14:25:26.783Z,8.05
2023-02-05T14:27:44.182Z,17.92
2023-02-05T14:30:01.554Z,233.65
2023-02-05T14:32:18.564Z,47.55
2023-02-05T14:34:35.599Z,19.25
2023-02-05T14:36:53.732Z,7.13
2023-02-05T14:39:11.572Z,6.63
2023-02-05T14:41:28.911Z,7.20
2023-02-05T14:43:46.330Z,6.97
2023-02-05T14:46:03.859Z,7.30
2023-02-05T14:48:21.808Z,3.35
2023-02-05T14:50:39.207Z,13.90
2023-02-05T14:52:56.334Z,8.02
2023-02-05T14:55:13.391Z,7.00
2023-02-05T14:57:31.836Z,7.90
2023-02-05T14:59:48.847Z,13.27
2023-02-05T15:02:06.198Z,9.15
2023-02-05T15:04:23.994Z,5.00
2023-02-05T15:06:41.007Z,5.95
2023-02-05T15:08:58.286Z,9.40
2023-02-05T15:11:15.239Z,7.80
2023-02-05T15:13:32.313Z,10.82
2023-02-05T15:15:49.615Z,6.65
2023-02-05T15:18:07.726Z,6.38
2023-02-05T15:20:24.792Z,12.05
2023-02-05T15:22:42.110Z,9.70
2023-02-05T15:24:59.457Z,7.95
2023-02-05T15:27:16.467Z,7.60
2023-02-05T15:29:33.570Z,8.85
2023-02-05T15:31:50.661Z,11.13
2023-02-05T15:34:08.355Z,17.10
2023-02-05T15:36:25.309Z,56.60
2023-02-05T15:38:42.336Z,44.97
2023-02-05T15:40:59.320Z,12.35
2023-02-05T15:43:17.551Z,13.15
2023-02-05T15:45:35.161Z,14.38
2023-02-05T15:47:52.466Z,8.95
2023-02-05T15:50:09.523Z,8.35
2023-02-05T15:52:26.983Z,19.42
2023-02-05T15:54:45.224Z,11.70
2023-02-05T15:57:02.346Z,13.23
2023-02-05T15:59:19.694Z,14.55
2023-02-05T16:01:36.945Z,15.73
2023-02-05T16:03:54.902Z,12.63
2023-02-05T16:06:12.244Z,9.80
2023-02-05T16:08:29.455Z,7.82
2023-02-05T16:10:46.869Z,11.65
2023-02-05T16:13:04.411Z,7.85
2023-02-05T16:15:21.410Z,5.47
2023-02-05T16:17:38.806Z,6.07
2023-02-05T16:19:55.863Z,4.60
2023-02-05T16:22:12.857Z,5.88
2023-02-05T16:24:30.110Z,3.95
2023-02-05T16:26:47.430Z,3.95
2023-02-05T16:29:11.645Z,4.22
2023-02-05T16:31:37.639Z,7.75
2023-02-05T16:33:54.770Z,5.53
2023-02-05T16:36:11.695Z,10.70
2023-02-05T16:38:29.485Z,6.10
2023-02-05T16:40:46.456Z,6.15
2023-02-05T16:43:03.470Z,4.88
2023-02-05T16:45:20.846Z,5.95
2023-02-05T16:47:37.889Z,4.97
2023-02-05T16:49:56.767Z,5.55
2023-02-05T16:52:14.105Z,4.05
2023-02-05T16:54:31.417Z,3.80
2023-02-05T16:56:48.448Z,5.43
2023-02-05T16:59:05.732Z,3.90
2023-02-05T17:01:23.667Z,4.65
2023-02-05T17:03:41.963Z,5.70
2023-02-05T17:05:59.195Z,4.53
2023-02-05T17:08:16.251Z,4.40
2023-02-05T17:10:33.456Z,3.17
2023-02-05T17:12:50.908Z,3.35
2023-02-05T17:15:08.560Z,4.30
2023-02-05T17:17:25.918Z,3.22
2023-02-05T17:19:42.917Z,3.58
2023-02-05T17:22:00.261Z,3.28
2023-02-05T17:24:17.469Z,5.22
2023-02-05T17:26:34.461Z,3.58
2023-02-05T17:28:52.452Z,5.28
2023-02-05T17:31:09.528Z,4.45
2023-02-05T17:33:26.568Z,4.43
2023-02-05T17:35:43.574Z,4.57
2023-02-05T17:38:00.871Z,4.57
2023-02-05T17:40:17.942Z,4.82
2023-02-05T17:42:35.001Z,3.85
2023-02-05T17:44:52.042Z,4.07
2023-02-05T17:47:09.305Z,3.22
2023-02-05T17:49:26.380Z,3.72
2023-02-05T17:51:43.578Z,3.88
2023-02-05T17:54:00.483Z,3.90
2023-02-05T17:56:17.414Z,3.30
2023-02-05T17:58:34.754Z,3.13
2023-02-05T18:00:51.811Z,3.45
2023-02-05T18:03:09.840Z,3.35
2023-02-05T18:05:26.773Z,2.42
2023-02-05T18:07:44.290Z,3.50
2023-02-05T18:10:01.208Z,2.85
2023-02-05T18:12:19.153Z,3.63
2023-02-05T18:14:37.335Z,3.10
2023-02-05T18:16:54.294Z,3.65
2023-02-05T18:19:11.344Z,5.38
2023-02-05T18:21:28.391Z,4.32
2023-02-05T18:23:45.624Z,3.25
2023-02-05T18:26:02.908Z,3.05
2023-02-05T18:28:20.177Z,3.08
2023-02-05T18:30:38.558Z,3.10
2023-02-05T18:32:56.826Z,2.85
2023-02-05T18:35:13.929Z,3.88
2023-02-05T18:37:30.963Z,5.63
2023-02-05T18:39:47.891Z,4.38
2023-02-05T18:42:05.091Z,4.90
2023-02-05T18:44:23.170Z,5.40
2023-02-05T18:46:40.174Z,4.65
2023-02-05T18:48:57.400Z,4.20
2023-02-05T18:51:15.658Z,4.15
2023-02-05T18:53:33.004Z,3.53
2023-02-05T18:55:50.021Z,4.47
2023-02-05T18:58:06.992Z,3.05
2023-02-05T19:00:24.010Z,2.25
2023-02-05T19:02:41.030Z,2.35
2023-02-05T19:04:58.150Z,1.77
2023-02-05T19:07:16.441Z,1.67
2023-02-05T19:09:33.465Z,2.20
2023-02-05T19:11:50.795Z,1.92
2023-02-05T19:14:07.855Z,2.20
2023-02-05T19:16:24.835Z,2.42
2023-02-05T19:18:41.884Z,3.28
2023-02-05T19:20:58.985Z,3.72
2023-02-05T19:23:16.247Z,3.50
2023-02-05T19:25:33.323Z,2.65
2023-02-05T19:27:50.378Z,2.78
2023-02-05T19:30:07.451Z,2.30
2023-02-05T19:32:25.488Z,3.00
2023-02-05T19:34:42.674Z,4.90
2023-02-05T19:36:59.697Z,5.43
2023-02-05T19:39:17.037Z,8.65
2023-02-05T19:41:34.036Z,6.97
2023-02-05T19:43:52.112Z,5.65
2023-02-05T19:46:09.176Z,4.90
2023-02-05T19:48:26.157Z,4.47
2023-02-05T19:50:43.182Z,4.47
2023-02-05T19:53:00.428Z,3.53
2023-02-05T19:55:17.456Z,4.30
2023-02-05T19:57:34.502Z,5.10
2023-02-05T19:59:51.492Z,5.00
2023-02-05T20:02:08.769Z,6.65
2023-02-05T20:04:25.739Z,6.32
2023-02-05T20:06:43.095Z,6.20
2023-02-05T20:09:00.369Z,6.72
2023-02-05T20:11:17.348Z,5.95
2023-02-05T20:13:34.309Z,8.85
2023-02-05T20:15:51.714Z,9.88
2023-02-05T20:18:08.774Z,8.27
2023-02-05T20:20:33.489Z,7.93
2023-02-05T20:22:50.604Z,7.38
2023-02-05T20:25:07.561Z,7.60
2023-02-05T20:27:25.109Z,6.70
2023-02-05T20:29:42.045Z,7.13
2023-02-05T20:31:59.163Z,8.20
2023-02-05T20:34:17.117Z,6.80
2023-02-05T20:36:34.479Z,7.38
2023-02-05T20:38:51.627Z,8.80
2023-02-05T20:41:08.662Z,7.72
2023-02-05T20:43:25.733Z,11.80
2023-02-05T20:45:42.697Z,7.78
2023-02-05T20:47:59.607Z,6.45
2023-02-05T20:50:16.689Z,8.63
2023-02-05T20:52:33.770Z,5.90
2023-02-05T20:54:51.033Z,7.97
2023-02-05T20:57:08.318Z,11.15
2023-02-05T20:59:26.295Z,7.75
2023-02-05T21:01:43.591Z,9.05
2023-02-05T21:04:00.599Z,9.70
2023-02-05T21:06:17.588Z,7.57
2023-02-05T21:08:34.539Z,7.07
2023-02-05T21:10:51.898Z,8.85
2023-02-05T21:13:09.212Z,10.45
2023-02-05T21:15:26.226Z,7.03
2023-02-05T21:17:43.490Z,8.27
2023-02-05T21:20:00.550Z,9.00
2023-02-05T21:22:18.792Z,8.60
2023-02-05T21:24:36.095Z,8.48
2023-02-05T21:26:53.167Z,10.15
2023-02-05T21:29:10.284Z,9.95
2023-02-05T21:31:28.180Z,9.95
2023-02-05T21:33:45.495Z,8.70
2023-02-05T21:36:02.438Z,9.43
2023-02-05T21:38:19.725Z,11.77
2023-02-05T21:40:36.929Z,10.77
2023-02-05T21:42:53.942Z,13.45
2023-02-05T21:45:10.924Z,9.98
2023-02-05T21:47:27.890Z,9.52
2023-02-05T21:49:44.852Z,8.93
2023-02-05T21:52:02.211Z,12.23
2023-02-05T21:54:20.469Z,16.60
2023-02-05T21:56:37.369Z,6.80
2023-02-05T21:58:54.388Z,9.82
2023-02-05T22:01:11.597Z,13.15
2023-02-05T22:03:28.663Z,11.73
2023-02-05T22:05:46.725Z,11.35
2023-02-05T22:08:03.694Z,15.15
2023-02-05T22:10:21.001Z,10.43
2023-02-05T22:12:38.242Z,14.65
2023-02-05T22:14:55.539Z,11.57
2023-02-05T22:17:12.783Z,12.70
2023-02-05T22:19:31.014Z,9.95
2023-02-05T22:21:48.047Z,11.77
2023-02-05T22:24:05.027Z,7.32
2023-02-05T22:26:22.130Z,8.63
2023-02-05T22:28:39.118Z,8.55
2023-02-05T22:30:56.078Z,11.38
2023-02-05T22:33:13.086Z,11.35
2023-02-05T22:35:30.087Z,7.40
2023-02-05T22:37:47.294Z,11.25
2023-02-05T22:40:04.289Z,11.10
2023-02-05T22:42:21.367Z,11.02
2023-02-05T22:44:38.382Z,7.03
2023-02-05T22:46:56.377Z,10.13
2023-02-05T22:49:13.374Z,7.43
2023-02-05T22:51:30.454Z,8.07
2023-02-05T22:53:47.690Z,8.85
2023-02-05T22:56:04.717Z,7.22
2023-02-05T22:58:21.975Z,8.57
2023-02-05T23:00:38.943Z,7.50
2023-02-05T23:02:55.933Z,6.97
2023-02-05T23:05:13.177Z,7.93
2023-02-05T23:07:30.478Z,8.27
2023-02-05T23:09:47.762Z,7.38
2023-02-05T23:12:04.719Z,7.43
2023-02-05T23:14:21.777Z,8.50
2023-02-05T23:16:38.757Z,10.02
2023-02-05T23:18:55.732Z,7.95
2023-02-05T23:21:13.988Z,8.57
2023-02-05T23:23:30.964Z,6.68
2023-02-05T23:25:47.994Z,8.35
2023-02-05T23:28:05.343Z,9.13
2023-02-05T23:30:22.328Z,6.72
2023-02-05T23:32:39.597Z,6.90
2023-02-05T23:34:56.671Z,6.72
2023-02-05T23:37:13.650Z,8.68
2023-02-05T23:39:30.847Z,9.23
2023-02-05T23:41:48.058Z,6.22
2023-02-05T23:44:05.255Z,5.78
2023-02-05T23:46:22.351Z,7.15
2023-02-05T23:48:39.384Z,4.68
2023-02-05T23:50:56.330Z,8.90
2023-02-05T23:53:13.380Z,9.48
2023-02-05T23:55:30.688Z,8.55
2023-02-05T23:57:47.649Z,5.70
